Home > Products > Valid Products > MTR

000
SAUS41 KPHI 250055
MTR12N
METAR K12N 250054Z AUTO VRB04KT 20/12 A2993 RMK AO1 SLP129 T02000122





000
SAUS41 KPHI 250055
MTRACY
METAR KACY 250054Z 11005KT 10SM CLR 22/19 A2988 RMK AO2 SLP116
T02170194





000
SAUS41 KPHI 242356
MTRACY
METAR KACY 242354Z 13005KT 10SM CLR 23/19 A2987 RMK AO2 SLP115
T02280194 10278 20228 53010





000
SAUS41 KPHI 242355
MTR12N
METAR K12N 242354Z AUTO 35004KT 22/12 A2991 RMK AO1 SLP122 T02170117
10267 20217 53008





000
SAUS41 KPHI 242257
MTRACY
METAR KACY 242254Z 35005KT 10SM CLR 26/14 A2985 RMK AO2 SLP109
T02610139





000
SAUS41 KPHI 242255
MTR12N
METAR K12N 242254Z AUTO 35005KT 23/12 A2989 RMK AO1 SLP114 T02330117





000
SAUS41 KPHI 242157
MTRACY
METAR KACY 242154Z 32009KT 10SM FEW055 27/16 A2984 RMK AO2 SLP104
T02720156





000
SAUS41 KPHI 242155
MTR12N
METAR K12N 242154Z AUTO 36009KT 24/12 A2988 RMK AO1 SLP112 T02440117





000
SAUS41 KPHI 242056
MTRACY
METAR KACY 242054Z 32006KT 10SM FEW049 26/16 A2984 RMK AO2 SLP104
T02610156 56008





000
SAUS41 KPHI 242055
MTR12N
METAR K12N 242054Z AUTO 34006KT 26/12 A2989 RMK AO1 SLP113 T02560122
55002





000
SAUS41 KPHI 241957
MTRACY
METAR KACY 241954Z 34007KT 10SM CLR 27/16 A2985 RMK AO2 SLP108
T02670161





000
SAUS41 KPHI 241955
MTR12N
METAR K12N 241954Z AUTO VRB04KT 26/13 A2988 RMK AO1 SLP112 T02610133





000
SAUS41 KPHI 241855
MTR12N
METAR K12N 241854Z AUTO VRB05KT 25/14 A2989 RMK AO1 SLP112 T02500139





000
SAUS41 KPHI 241855
MTRACY
METAR KACY 241854Z VRB05KT 10SM BKN032 27/18 A2985 RMK AO2 SLP109
T02670183





000
SAUS41 KPHI 241755
MTR12N
METAR K12N 241754Z AUTO 36005KT 24/13 A2989 RMK AO1 SLP114 T02440133
10256 20206 58008





000
SAUS41 KPHI 241755
MTRACY
METAR KACY 241754Z 34007KT 10SM BKN050 25/19 A2987 RMK AO2 SLP113
60000 T02500189 10250 20217 58004





000
SAUS41 KPHI 241655
MTRACY
METAR KACY 241654Z 32006KT 10SM FEW070 OVC090 24/18 A2988 RMK AO2
RAE02 SLP118 P0000 T02440183





000
SAUS41 KPHI 241655
MTR12N
METAR K12N 241654Z AUTO 35008KT 340V040 24/14 A2991 RMK AO1 SLP121
T02440144





000
SAUS41 KPHI 241557
MTRACY
METAR KACY 241554Z 31006KT 10SM -RA BKN047 BKN060 OVC075 24/19 A2988
RMK AO2 RAB50 SLP118 P0000 T02440194





000
SAUS41 KPHI 241556
MTR12N
METAR K12N 241554Z AUTO 36005KT 23/14 A2992 RMK AO1 SLP122 T02280139





000
SAUS41 KPHI 241457
MTRACY
METAR KACY 241454Z 34007KT 10SM BKN060 24/18 A2988 RMK AO2 SLP117
T02390183 53010





000
SAUS41 KPHI 241455
MTR12N
METAR K12N 241454Z AUTO VRB04KT 22/14 A2992 RMK AO1 SLP123 T02220144
53006





000
SAUS41 KPHI 241356
MTRACY
METAR KACY 241354Z 34007KT 10SM FEW110 24/19 A2986 RMK AO2 SLP111
T02390189





000
SAUS41 KPHI 241355
MTR12N
METAR K12N 241354Z AUTO VRB05KT 22/15 A2989 RMK AO1 SLP115 T02220150





000
SAUS41 KPHI 241302 COR
MTR12N
METAR K12N 241254Z AUTO VRB05KT 21/15 A2990 RMK AO1 SLP118 T02110150





000
SAUS41 KPHI 241255
MTR12N
METAR K12N 241254Z AUTO VRB05KT 21/15 A2990 RMK AO1 SLP118 T02110150





000
SAUS41 KPHI 241255
MTRACY
METAR KACY 241254Z 33008KT 10SM SCT110 22/19 A2986 RMK AO2 SLP109
T02220189





000
SAUS41 KPHI 241155
MTR12N
METAR K12N 241154Z AUTO VRB05KT 21/16 A2990 RMK AO1 SLP116 T02060161
10206 20194 53012





000
SAUS41 KPHI 241155
MTRACY
METAR KACY 241154Z 34006KT 10SM FEW044 SCT090 SCT110 22/19 A2985 RMK
AO2 RAB32E44 SLP107 P0000 60000 T02170194 10222 20211 53005 $





000
SAUS41 KPHI 241056
MTRACY
METAR KACY 241054Z 33009KT 10SM BKN038 22/20 A2984 RMK AO2 SLP105
T02170200 $





000
SAUS41 KPHI 241055
MTR12N
METAR K12N 241054Z AUTO 35006KT 19/16 A2989 RMK AO1 SLP112 T01940161





000
SAUS41 KPHI 240956
MTRACY
METAR KACY 240954Z 33005KT 10SM CLR 22/20 A2984 RMK AO2 SLP102
T02170200 $





000
SAUS41 KPHI 240955
MTR12N
METAR K12N 240954Z AUTO VRB04KT 19/16 A2987 RMK AO1 SLP106 T01940161





000
SAUS41 KPHI 240856
MTRACY
METAR KACY 240854Z 27004KT 10SM CLR 22/21 A2983 RMK AO2 SLP102
T02170206 53002 $





000
SAUS41 KPHI 240855
MTR12N
METAR K12N 240854Z AUTO 36004KT 20/17 A2986 RMK AO1 SLP102 T02000167
50002





000
SAUS41 KPHI 240756
MTRACY
METAR KACY 240754Z 28004KT 10SM CLR 22/20 A2981 RMK AO2 SLP095
T02170200 $





000
SAUS41 KPHI 240755
MTR12N
METAR K12N 240754Z AUTO 00000KT 20/17 A2987 RMK AO1 SLP104 T02000172





000
SAUS41 KPHI 240656
MTRACY
METAR KACY 240654Z 32003KT 10SM CLR 22/20 A2981 RMK AO2 SLP092
T02170200





000
SAUS41 KPHI 240655
MTR12N
METAR K12N 240654Z AUTO 00000KT 20/17 A2986 RMK AO1 SLP100 T02000172





000
SAUS41 KPHI 240556
MTR12N
METAR K12N 240554Z AUTO VRB03KT 21/18 A2986 RMK AO1 SLP100 T02060178
10256 20206 58002





000
SAUS41 KPHI 240555
MTRACY
METAR KACY 240554Z 34005KT 10SM CLR 22/20 A2983 RMK AO2 RAB16E25
SLP100 P0000 60000 T02220200 10256 20222 50006





000
SAUS41 KPHI 240456
MTRACY
METAR KACY 240454Z 23007KT 10SM FEW120 23/21 A2985 RMK AO2 SLP105
T02330206 403060200





000
SAUS41 KPHI 240455
MTR12N
METAR K12N 240454Z AUTO 36006KT 22/18 A2986 RMK AO1 SLP101 T02170183
403110194





000
SAUS41 KPHI 240356
MTRACY
METAR KACY 240354Z 31003KT 10SM CLR 23/21 A2983 RMK AO2 SLP101
T02330206





000
SAUS41 KPHI 240355
MTR12N
METAR K12N 240354Z AUTO 35005KT 22/19 A2986 RMK AO1 SLP103 T02220194





000
SAUS41 KPHI 240256
MTRACY
METAR KACY 240254Z 28004KT 10SM CLR 25/22 A2981 RMK AO2 SLP094
T02500222 58008





000
SAUS41 KPHI 240255
MTR12N
METAR K12N 240254Z AUTO 36003KT 23/20 A2986 RMK AO1 SLP102 T02280200
50014





000
SAUS41 KPHI 240157
MTRACY
METAR KACY 240154Z 23005KT 10SM FEW034 25/22 A2985 RMK AO2 SLP108
T02500222





000
SAUS41 KPHI 240155
MTR12N
METAR K12N 240154Z AUTO 35003KT 24/19 A2988 RMK AO1 SLP108 T02440194





000
SAUS41 KPHI 240057
MTRACY
METAR KACY 240054Z 20006KT 10SM CLR 25/22 A2985 RMK AO2 SLP107
T02500222





000
SAUS41 KPHI 240055
MTR12N
METAR K12N 240054Z AUTO VRB04KT 26/21 A2986 RMK AO1 SLP101 T02560206





000
SAUS41 KPHI 232355
MTRACY
METAR KACY 232354Z 19010KT 10SM CLR 26/22 A2984 RMK AO2 SLP102
T02560217 10300 20256 55008





000
SAUS41 KPHI 232355
MTR12N
METAR K12N 232354Z AUTO 22003KT 26/22 A2982 RMK AO1 SLP089 T02560222
10311 20256 53001





000
SAUS41 KPHI 232255
MTR12N
METAR K12N 232254Z AUTO 24003KT 28/22 A2980 RMK AO1 SLP082 T02780222





000
SAUS41 KPHI 232255
MTRACY
METAR KACY 232254Z 17009KT 10SM CLR 27/21 A2983 RMK AO2 SLP099
T02670206





000
SAUS41 KPHI 232155
MTRACY
METAR KACY 232154Z 18010G18KT 10SM CLR 28/21 A2984 RMK AO2 SLP103
T02780206





000
SAUS41 KPHI 232155
MTR12N
METAR K12N 232154Z AUTO 22004KT 29/22 A2980 RMK AO1 SLP084 T02890222





000
SAUS41 KPHI 232055
MTR12N
METAR K12N 232054Z AUTO 22006KT 31/22 A2982 RMK AO1 SLP087 T03060217
56022





000
SAUS41 KPHI 232055
MTRACY
METAR KACY 232054Z 17010KT 10SM CLR 28/21 A2986 RMK AO2 SLP111
T02780211 58019





000
SAUS41 KPHI 231955
MTRACY
METAR KACY 231954Z 17012G18KT 10SM CLR 28/21 A2988 RMK AO2 SLP116
T02830211





000
SAUS41 KPHI 231955
MTR12N
METAR K12N 231954Z AUTO 22009KT 31/21 A2983 RMK AO1 SLP092 T03060211





000
SAUS41 KPHI 231856
MTR12N
METAR K12N 231854Z AUTO 22010G16KT 31/21 A2986 RMK AO1 SLP103
T03060211





000
SAUS41 KPHI 231855
MTRACY
METAR KACY 231854Z 18011KT 10SM CLR 29/22 A2990 RMK AO2 SLP125
T02940217





000
SAUS41 KPHI 231755
MTRACY
METAR KACY 231754Z 19010G20KT 140V210 10SM CLR 30/23 A2992 RMK AO2
SLP130 T03000228 10306 20228 56020





000
SAUS41 KPHI 231755
MTR12N
METAR K12N 231754Z AUTO VRB05KT 30/22 A2988 RMK AO1 SLP109 T03000217
10306 20228 56021





000
SAUS41 KPHI 231655
MTRACY
METAR KACY 231654Z AUTO 16012KT 10SM SCT028 BKN041 29/23 A2992 RMK
AO2 SLP132 T02940228 TSNO





000
SAUS41 KPHI 231655
MTR12N
METAR K12N 231654Z AUTO 23005KT 30/22 A2990 RMK AO1 SLP113 T03000222





000
SAUS41 KPHI 231557
MTRACY
METAR KACY 231554Z 18006KT 10SM SCT028 BKN035 BKN042 30/22 A2995 RMK
AO2 SLP141 T03000222





000
SAUS41 KPHI 231555
MTR12N
METAR K12N 231554Z AUTO 22007KT 29/22 A2992 RMK AO1 SLP123 T02890217





000
SAUS41 KPHI 231549
MTRACY
SPECI KACY 231546Z 22008KT 10SM BKN028 BKN035 30/22 A2996 RMK AO2
T03000222





000
SAUS41 KPHI 231455
MTRACY
METAR KACY 231454Z 25007KT 10SM CLR 29/22 A2998 RMK AO2 SLP150
T02890222 58016





000
SAUS41 KPHI 231455
MTR12N
METAR K12N 231454Z AUTO 21006KT 27/21 A2994 RMK AO1 SLP131 T02670211
58020





000
SAUS41 KPHI 231355
MTR12N
METAR K12N 231354Z AUTO 23005KT 26/21 A2996 RMK AO1 SLP137 T02560211





000
SAUS41 KPHI 231355
MTRACY
METAR KACY 231354Z 21006KT 10SM CLR 27/22 A2999 RMK AO2 SLP156
T02670222





000
SAUS41 KPHI 231325
MTRACY
SPECI KACY 231322Z 22005KT 10SM SCT009 26/22 A3001 RMK AO2 T02560222





000
SAUS41 KPHI 231256
MTRACY
METAR KACY 231254Z 21007KT 10SM BKN007 24/22 A3002 RMK AO2 CIG
006V010 SLP165 T02440222





000
SAUS41 KPHI 231255
MTR12N
METAR K12N 231254Z AUTO 23006KT 24/20 A2999 RMK AO1 SLP146 T02440200





000
SAUS41 KPHI 231238
MTRACY
SPECI KACY 231237Z 22006KT 10SM OVC005 24/22 A3002 RMK AO2 CIG
004V009 T02390222





000
SAUS41 KPHI 231155
MTRACY
METAR KACY 231154Z 24006KT 10SM OVC004 23/21 A3002 RMK AO2 SLP166
T02280211 10228 20200 53001





000
SAUS41 KPHI 231155
MTR12N
METAR K12N 231154Z AUTO 20003KT 23/19 A3000 RMK AO1 SLP151 T02280194
10228 20194 53002





000
SAUS41 KPHI 231137
MTRACY
SPECI KACY 231136Z 21006KT 10SM BKN004 23/22 A3001 RMK AO2 T02280217





000
SAUS41 KPHI 231055
MTRACY
METAR KACY 231054Z 21004KT 10SM SCT003 21/21 A3001 RMK AO2 SLP163
T02110206





000
SAUS41 KPHI 231055
MTR12N
METAR K12N 231054Z AUTO 22003KT 21/19 A3000 RMK AO1 SLP149 T02110194





000
SAUS41 KPHI 231040
MTRACY
SPECI KACY 231039Z 21004KT 10SM FEW003 21/20 A3001 RMK AO2 T02060200





000
SAUS41 KPHI 230957
MTRACY
METAR KACY 230954Z 20003KT 10SM CLR 20/19 A3002 RMK AO2 SLP164
T02000194





000
SAUS41 KPHI 230955
MTR12N
METAR K12N 230954Z AUTO 00000KT 20/19 A2999 RMK AO1 SLP148 T02000189





000
SAUS41 KPHI 230856
MTRACY
METAR KACY 230854Z 00000KT 10SM CLR 21/19 A3002 RMK AO2 SLP165
T02060194 56013





000
SAUS41 KPHI 230855
MTR12N
METAR K12N 230854Z AUTO 00000KT 21/19 A3000 RMK AO1 SLP149 T02060189
57015





000
SAUS41 KPHI 230755
MTR12N
METAR K12N 230754Z AUTO 20003KT 21/19 A3001 RMK AO1 SLP153 T02110189





000
SAUS41 KPHI 230755
MTRACY
METAR KACY 230754Z 20004KT 10SM CLR 21/19 A3003 RMK AO2 SLP168
T02060189





000
SAUS41 KPHI 230657
MTRACY
METAR KACY 230654Z 20006KT 10SM CLR 21/19 A3004 RMK AO2 SLP173
T02110194





000
SAUS41 KPHI 230655
MTR12N
METAR K12N 230654Z AUTO 00000KT 21/19 A3003 RMK AO1 SLP159 T02060189





000
SAUS41 KPHI 230556
MTRACY
METAR KACY 230554Z 20004KT 10SM CLR 21/20 A3006 RMK AO2 SLP178
T02110200 10239 20211 56013





000
SAUS41 KPHI 230555
MTR12N
METAR K12N 230554Z AUTO 00000KT 22/19 A3004 RMK AO1 SLP163 T02220189
10261 20217 58009





000
SAUS41 KPHI 230456
MTRACY
METAR KACY 230454Z 20003KT 10SM CLR 21/20 A3007 RMK AO2 SLP181
T02110200 402830161





000
SAUS41 KPHI 230455
MTR12N
METAR K12N 230454Z AUTO VRB03KT 23/19 A3006 RMK AO1 SLP168 T02280194
402890167





000
SAUS41 KPHI 230355
MTRACY
METAR KACY 230354Z 19004KT 10SM CLR 22/20 A3008 RMK AO2 SLP184
T02170200





000
SAUS41 KPHI 230355
MTR12N
METAR K12N 230354Z AUTO VRB03KT 23/20 A3006 RMK AO1 SLP169 T02330200





000
SAUS41 KPHI 230355
MTR12N
METAR K12N 230354Z AUTO VRB03KT 23/20 A3006 RMK AO1 SLP169 T02330200





000
SAUS41 KPHI 230355
MTRACY
METAR KACY 230354Z 19004KT 10SM CLR 22/20 A3008 RMK AO2 SLP184
T02170200





000
SAUS41 KPHI 230257
MTRACY
METAR KACY 230254Z 18004KT 10SM CLR 22/20 A3010 RMK AO2 SLP191
T02220200 58005





000
SAUS41 KPHI 230255
MTR12N
METAR K12N 230254Z AUTO 00000KT 22/21 A3007 RMK AO1 SLP173 T02220206
58003





000
SAUS41 KPHI 230156
MTRACY
METAR KACY 230154Z 20004KT 10SM CLR 22/20 A3011 RMK AO2 SLP196
T02220200





000
SAUS41 KPHI 230155
MTR12N
METAR K12N 230154Z AUTO 00000KT 23/21 A3007 RMK AO1 SLP175 T02330211





000
SAUS41 KPHI 230056
MTRACY
METAR KACY 230054Z 17005KT 10SM CLR 23/19 A3011 RMK AO2 SLP196
T02280194





000
SAUS41 KPHI 230055
MTR12N
METAR K12N 230054Z AUTO 00000KT 24/21 A3007 RMK AO1 SLP175 T02440211





000
SAUS41 KPHI 222355
MTRACY
METAR KACY 222354Z AUTO 18009KT 10SM CLR 24/18 A3011 RMK AO2 SLP196
T02390183 10283 20239 55003 TSNO





000
SAUS41 KPHI 222355
MTR12N
METAR K12N 222354Z AUTO 00000KT 26/21 A3008 RMK AO1 SLP177 T02610211
10289 20261 57003





000
SAUS41 KPHI 222256
MTRACY
METAR KACY 222254Z AUTO 17009KT 10SM CLR 25/17 A3011 RMK AO2 SLP195
T02500167 TSNO





000
SAUS41 KPHI 222255
MTR12N
METAR K12N 222254Z AUTO 22005KT 28/21 A3008 RMK AO1 SLP179 T02780206





000
SAUS41 KPHI 222155
MTRACY
METAR KACY 222154Z AUTO 18011KT 10SM CLR 26/16 A3012 RMK AO2 SLP197
T02610161 TSNO





000
SAUS41 KPHI 222155
MTR12N
METAR K12N 222154Z AUTO 22006KT 28/20 A3008 RMK AO1 SLP178 T02830200





000
SAUS41 KPHI 222055
MTR12N
METAR K12N 222054Z AUTO 22006KT 28/21 A3009 RMK AO1 SLP180 T02830206
58016





000
SAUS41 KPHI 222055
MTRACY
METAR KACY 222054Z AUTO 18010KT 10SM CLR 27/16 A3012 RMK AO2 SLP199
T02670161 58013 TSNO





000
SAUS41 KPHI 221957
MTRACY
METAR KACY 221954Z 20011KT 10SM CLR 28/18 A3014 RMK AO2 SLP205
T02780178





000
SAUS41 KPHI 221955
MTR12N
METAR K12N 221954Z AUTO 21005KT 29/20 A3010 RMK AO1 SLP185 T02890200





000
SAUS41 KPHI 221857
MTRACY
METAR KACY 221854Z 16010KT 10SM FEW050 28/18 A3016 RMK AO2 SLP211
T02780183





000
SAUS41 KPHI 221855
MTR12N
METAR K12N 221854Z AUTO 21007KT 28/20 A3012 RMK AO1 SLP192 T02830200





000
SAUS41 KPHI 221757
MTRACY
METAR KACY 221754Z 19007KT 10SM CLR 28/18 A3016 RMK AO2 SLP212
T02780183 10283 20211 56009 $





000
SAUS41 KPHI 221755
MTR12N
METAR K12N 221754Z AUTO 21006KT 28/19 A3013 RMK AO1 SLP196 T02780194
10283 20200 58013





000
SAUS41 KPHI 221655
MTR12N
METAR K12N 221654Z AUTO 22005KT 27/19 A3015 RMK AO1 SLP204 T02720194





000
SAUS41 KPHI 221655
MTRACY
METAR KACY 221654Z 15006KT 10SM CLR 28/19 A3016 RMK AO2 SLP214
T02780189 $





000
SAUS41 KPHI 221557
MTRACY
METAR KACY 221554Z 19007KT CLR 27/18 A3017 RMK AO2 SLP216 T02720178
$





000
SAUS41 KPHI 221555
MTR12N
METAR K12N 221554Z AUTO VRB06KT 27/19 A3016 RMK AO1 SLP207 T02720194





000
SAUS41 KPHI 221456
MTRACY
METAR KACY 221454Z VRB03KT 10SM CLR 27/19 A3019 RMK AO2 SLP221
T02670189 56008 $





000
SAUS41 KPHI 221455
MTR12N
METAR K12N 221454Z AUTO VRB04KT 26/20 A3017 RMK AO1 SLP210 T02610200
56010





000
SAUS41 KPHI 221357
MTRACY
METAR KACY 221354Z 00000KT 10SM CLR 26/18 A3019 RMK AO2 SLP222
T02610183 $





000
SAUS41 KPHI 221355
MTR12N
METAR K12N 221354Z AUTO VRB03KT 24/19 A3018 RMK AO1 SLP212 T02440194





000
SAUS41 KPHI 221255
MTRACY
METAR KACY 221254Z 00000KT 10SM CLR 24/19 A3020 RMK AO2 SLP227
T02390189 $





000
SAUS41 KPHI 221255
MTR12N
METAR K12N 221254Z AUTO 23004KT 23/19 A3019 RMK AO1 SLP216 T02280189





000
SAUS41 KPHI 221156
MTRACY
METAR KACY 221154Z 00000KT 10SM CLR 21/18 A3021 RMK AO2 SLP229
T02110183 10211 20161 51011





000
SAUS41 KPHI 221155
MTR12N
METAR K12N 221154Z AUTO 00000KT 20/19 A3020 RMK AO1 SLP220 T02000189
10200 20167 51005





000
SAUS41 KPHI 221057
MTRACY
METAR KACY 221054Z 00000KT 10SM CLR 18/17 A3020 RMK AO2 SLP225
T01830167 $





000
SAUS41 KPHI 221055
MTR12N
METAR K12N 221054Z AUTO 00000KT 18/17 A3020 RMK AO1 SLP219 T01780172





000
SAUS41 KPHI 220955
MTRACY
METAR KACY 220954Z 31003KT 10SM CLR 17/16 A3019 RMK AO2 SLP222
T01720161 $





000
SAUS41 KPHI 220955
MTR12N
METAR K12N 220954Z AUTO 20003KT 17/17 A3019 RMK AO1 SLP217 T01720167





000
SAUS41 KPHI 220855
MTR12N
METAR K12N 220854Z AUTO 00000KT 17/17 A3019 RMK AO1 SLP215 T01720167
55001





000
SAUS41 KPHI 220855
MTRACY
METAR KACY 220854Z 00000KT 10SM CLR 16/15 A3018 RMK AO2 SLP217
T01610150 53000 $





000
SAUS41 KPHI 220757
MTRACY
METAR KACY 220754Z 00000KT 10SM CLR 17/16 A3017 RMK AO2 SLP215
T01670156 $





000
SAUS41 KPHI 220755
MTR12N
METAR K12N 220754Z AUTO 00000KT 17/17 A3018 RMK AO1 SLP213 T01720167





000
SAUS41 KPHI 220655
MTR12N
METAR K12N 220654Z AUTO 00000KT 18/17 A3018 RMK AO1 SLP213 T01780172





000
SAUS41 KPHI 220655
MTRACY
METAR KACY 220654Z 00000KT 10SM CLR 18/17 A3017 RMK AO2 SLP215
T01780167 $





000
SAUS41 KPHI 220555
MTRACY
METAR KACY 220554Z 00000KT 10SM CLR 17/16 A3017 RMK AO2 SLP217
T01720161 10222 20172 58005 $





000
SAUS41 KPHI 220555
MTR12N
METAR K12N 220554Z AUTO 00000KT 18/18 A3019 RMK AO1 SLP216 T01830178
10239 20183 53002





000
SAUS41 KPHI 220455
MTR12N
METAR K12N 220454Z AUTO 00000KT 18/18 A3018 RMK AO1 SLP213 T01830178
402890144





000
SAUS41 KPHI 220455
MTRACY
METAR KACY 220454Z 00000KT 10SM CLR 18/17 A3018 RMK AO2 SLP220
T01830172 402670156 $





000
SAUS41 KPHI 220355
MTR12N
METAR K12N 220354Z AUTO 00000KT 19/18 A3018 RMK AO1 SLP212 T01890178





000
SAUS41 KPHI 220355
MTRACY
METAR KACY 220354Z 00000KT 10SM CLR 18/17 A3018 RMK AO2 SLP220
T01830167 $





000
SAUS41 KPHI 220255
MTR12N
METAR K12N 220254Z AUTO 00000KT 19/18 A3018 RMK AO1 SLP213 T01940183
53005





000
SAUS41 KPHI 220255
MTRACY
METAR KACY 220254Z 00000KT 10SM CLR 20/17 A3019 RMK AO2 SLP222
T02000172 53001 $





000
SAUS41 KPHI 220157
MTRACY
METAR KACY 220154Z 16004KT 10SM CLR 21/17 A3019 RMK AO2 SLP222
T02110172 $





000
SAUS41 KPHI 220155
MTR12N
METAR K12N 220154Z AUTO 00000KT 21/18 A3018 RMK AO1 SLP214 T02060183





    US Dept of Commerce
    National Oceanic and Atmospheric Administration
    National Weather Service
    1325 East West Highway
    Silver Spring, MD 20910
    Page Author: NWS Internet Services Team
Disclaimer
Information Quality
Credits
Glossary
Privacy Policy
Freedom of Information Act (FOIA)
About Us
Career Opportunities